Time;durP1;ratioP1;P1;durP2;ratioP2;P2;SDS_P1;SDS_P2;PMS_P1;PMS_P2;Temp;Humidity;BMP_temperature;BMP_pressure;BME280_temperature;BME280_humidity;BME280_pressure;Samples;Min_cycle;Max_cycle;Signal;HPM_P1;HPM_P2
2022/11/07 00:01:50;;;;;;;5.00;4.45;;;21.00;47.60;;;;;;5057706;28;20056;-62
2022/11/07 00:04:18;;;;;;;7.70;4.70;;;21.00;47.60;;;;;;5057658;28;20088;-62
2022/11/07 00:06:45;;;;;;;4.90;3.90;;;21.00;47.70;;;;;;5057359;28;20045;-62
2022/11/07 00:09:12;;;;;;;4.63;3.42;;;21.00;47.70;;;;;;5057591;28;20049;-62
2022/11/07 00:11:39;;;;;;;4.88;3.85;;;21.00;47.70;;;;;;5057383;28;20049;-62
2022/11/07 00:14:06;;;;;;;5.05;3.70;;;21.00;47.70;;;;;;5057421;28;20048;-62
2022/11/07 00:16:33;;;;;;;4.70;4.18;;;21.00;47.70;;;;;;5056610;28;20048;-62
2022/11/07 00:19:00;;;;;;;4.13;3.47;;;21.00;47.70;;;;;;5056975;28;20045;-63
2022/11/07 00:21:27;;;;;;;5.47;4.30;;;21.00;47.70;;;;;;5057190;28;20469;-62
2022/11/07 00:23:54;;;;;;;5.65;3.67;;;21.00;47.70;;;;;;5055734;28;20513;-62
2022/11/07 00:26:22;;;;;;;4.40;3.80;;;21.00;47.70;;;;;;5057233;28;20049;-62
2022/11/07 00:28:49;;;;;;;4.30;3.60;;;21.00;47.70;;;;;;5056942;28;20053;-62
2022/11/07 00:31:17;;;;;;;4.70;4.25;;;21.00;47.70;;;;;;5057253;28;20044;-62
2022/11/07 00:33:44;;;;;;;5.13;3.97;;;21.00;47.80;;;;;;5055662;28;20455;-62
2022/11/07 00:36:21;;;;;;;4.63;4.00;;;21.00;47.80;;;;;;5056992;28;20052;-62
2022/11/07 00:38:48;;;;;;;5.00;4.05;;;21.00;47.90;;;;;;5056076;28;20056;-62
2022/11/07 00:41:16;;;;;;;5.22;4.13;;;21.00;47.90;;;;;;5057134;28;20049;-62
2022/11/07 00:43:43;;;;;;;5.25;4.32;;;21.00;47.90;;;;;;5056652;28;20048;-62
2022/11/07 00:46:12;;;;;;;4.68;3.83;;;21.00;47.90;;;;;;5056860;28;20454;-62
2022/11/07 00:48:39;;;;;;;5.07;3.97;;;21.00;48.00;;;;;;5057115;28;20395;-63
2022/11/07 00:51:13;;;;;;;6.35;4.10;;;21.00;48.00;;;;;;5056453;28;20045;-62
2022/11/07 00:53:40;;;;;;;6.05;4.05;;;21.00;48.00;;;;;;5056651;28;20160;-59
2022/11/07 00:56:10;;;;;;;5.30;4.13;;;21.00;47.90;;;;;;5056554;28;20499;-62
2022/11/07 00:58:38;;;;;;;;;;;21.00;47.90;;;;;;5057127;28;20056;-61
2022/11/07 01:01:18;;;;;;;4.38;3.67;;;21.00;47.90;;;;;;5056496;28;19920;-62
2022/11/07 01:06:36;;;;;;;5.47;4.40;;;21.00;47.80;;;;;;5056980;28;20075;-62
2022/11/07 01:09:05;;;;;;;4.10;3.67;;;21.00;47.80;;;;;;5056610;28;20049;-62
2022/11/07 01:11:32;;;;;;;4.93;3.97;;;21.00;47.80;;;;;;5056571;28;20051;-62
2022/11/07 01:14:00;;;;;;;5.00;3.67;;;21.00;47.90;;;;;;5056680;28;20053;-62
2022/11/07 01:16:29;;;;;;;6.78;4.15;;;21.00;47.90;;;;;;5056482;28;20049;-62
2022/11/07 01:18:56;;;;;;;4.95;3.97;;;21.00;47.80;;;;;;5056845;28;20056;-62
2022/11/07 01:21:23;;;;;;;4.88;3.63;;;21.00;47.90;;;;;;5056203;28;20052;-62
2022/11/07 01:23:51;;;;;;;4.38;3.90;;;21.00;47.90;;;;;;5056552;28;20061;-62
2022/11/07 01:26:18;;;;;;;4.47;3.83;;;21.00;47.80;;;;;;5056511;28;20045;-62
2022/11/07 01:28:45;;;;;;;5.50;4.13;;;21.00;47.90;;;;;;5057166;28;20049;-61
2022/11/07 01:31:14;;;;;;;5.40;3.70;;;21.00;47.90;;;;;;5060607;28;20054;-62
2022/11/07 01:33:41;;;;;;;4.30;3.90;;;21.00;47.90;;;;;;5059473;28;20045;-62
2022/11/07 01:36:12;;;;;;;5.53;3.97;;;21.00;47.90;;;;;;5060145;28;20060;-62
2022/11/07 01:38:42;;;;;;;4.53;3.40;;;21.00;47.90;;;;;;5060162;28;20507;-62
2022/11/07 01:41:21;;;;;;;4.65;3.75;;;21.00;47.90;;;;;;5060247;28;20474;-62
2022/11/07 01:44:02;;;;;;;9.43;3.87;;;21.00;47.90;;;;;;5060572;28;20055;-62
2022/11/07 01:46:33;;;;;;;4.97;3.60;;;21.00;47.90;;;;;;5058996;28;20553;-62
2022/11/07 01:49:26;;;;;;;4.65;3.50;;;21.00;47.90;;;;;;5059842;28;20099;-62
2022/11/07 01:52:12;;;;;;;4.50;3.33;;;21.00;47.90;;;;;;5060040;28;20485;-62
2022/11/07 01:54:58;;;;;;;4.57;3.60;;;21.00;47.90;;;;;;5060287;28;20053;-62
2022/11/07 01:57:32;;;;;;;4.88;3.60;;;21.00;47.90;;;;;;5060383;28;20415;-59
2022/11/07 02:00:03;;;;;;;5.22;4.13;;;21.00;47.90;;;;;;5059777;28;20060;-59
2022/11/07 02:02:32;;;;;;;3.70;3.33;;;21.00;47.90;;;;;;5059932;28;20063;-62
2022/11/07 02:05:04;;;;;;;4.72;3.60;;;21.00;47.90;;;;;;5059699;28;20080;-61
2022/11/07 02:07:31;;;;;;;4.63;3.53;;;21.00;47.90;;;;;;5060047;28;20053;-62
2022/11/07 02:09:59;;;;;;;5.32;4.05;;;21.00;48.00;;;;;;5059796;28;20056;-62
2022/11/07 02:12:27;;;;;;;3.50;3.17;;;21.00;48.00;;;;;;5058686;28;20048;-62
2022/11/07 02:14:55;;;;;;;5.40;3.60;;;21.00;48.00;;;;;;5059964;28;20052;-62
2022/11/07 02:17:22;;;;;;;6.32;4.20;;;21.00;48.00;;;;;;5059730;28;20411;-60
2022/11/07 02:19:52;;;;;;;4.53;3.63;;;20.90;48.00;;;;;;5059666;28;20056;-62
2022/11/07 02:22:33;;;;;;;;;;;21.00;48.10;;;;;;5059858;28;20049;-62
2022/11/07 02:25:05;;;;;;;4.50;3.58;;;20.90;48.10;;;;;;5059386;28;19921;-62
2022/11/07 02:27:33;;;;;;;4.10;3.47;;;20.90;48.10;;;;;;5059358;28;20048;-62
2022/11/07 02:30:10;;;;;;;3.88;3.20;;;20.90;48.10;;;;;;5059273;28;20072;-62
2022/11/07 02:32:38;;;;;;;5.07;3.75;;;20.90;48.20;;;;;;5059492;28;20045;-62
2022/11/07 02:35:26;;;;;;;3.65;3.20;;;20.90;48.20;;;;;;5059103;28;20060;-62
2022/11/07 02:37:54;;;;;;;4.90;3.72;;;20.90;48.20;;;;;;5059252;28;20041;-63
2022/11/07 02:40:22;;;;;;;5.20;3.65;;;20.90;48.20;;;;;;5058108;28;20053;-62
2022/11/07 02:42:49;;;;;;;3.80;3.10;;;20.90;48.20;;;;;;5059013;28;20056;-62
2022/11/07 02:45:26;;;;;;;3.40;3.10;;;20.90;48.20;;;;;;5059225;28;20060;-61
2022/11/07 02:47:54;;;;;;;3.35;3.05;;;20.90;48.10;;;;;;5058814;28;20490;-62
2022/11/07 02:50:21;;;;;;;4.63;3.72;;;21.00;48.20;;;;;;5059134;28;20410;-62
2022/11/07 02:52:48;;;;;;;4.05;3.40;;;21.00;48.10;;;;;;5058676;28;20056;-62
2022/11/07 02:55:16;;;;;;;3.40;3.00;;;21.00;48.10;;;;;;5058561;28;20486;-62
2022/11/07 02:57:43;;;;;;;3.78;3.25;;;21.00;48.10;;;;;;5058722;28;20487;-63
2022/11/07 03:00:12;;;;;;;4.90;3.53;;;21.00;48.10;;;;;;5058766;28;20498;-62
2022/11/07 03:02:45;;;;;;;3.78;3.38;;;21.00;48.10;;;;;;5058928;28;20060;-62
2022/11/07 03:05:15;;;;;;;4.50;3.70;;;21.00;48.10;;;;;;5058484;28;20099;-62
2022/11/07 03:07:43;;;;;;;4.32;3.33;;;21.00;48.10;;;;;;5058855;28;20045;-61
2022/11/07 03:10:10;;;;;;;4.80;3.63;;;21.00;48.10;;;;;;5041283;28;20052;-62
2022/11/07 03:12:37;;;;;;;4.10;3.40;;;21.00;48.10;;;;;;5058449;28;20049;-62
2022/11/07 03:15:06;;;;;;;4.22;3.20;;;21.00;48.10;;;;;;5058550;28;20530;-62
2022/11/07 03:17:33;;;;;;;4.45;3.47;;;21.00;48.10;;;;;;5058983;28;20090;-62
2022/11/07 03:20:00;;;;;;;4.03;3.17;;;21.00;48.10;;;;;;5057988;28;20128;-62
2022/11/07 03:22:27;;;;;;;4.30;3.13;;;21.00;48.00;;;;;;5058638;28;20049;-62
2022/11/07 03:24:55;;;;;;;4.55;3.78;;;21.00;48.10;;;;;;5058042;28;20045;-62
2022/11/07 03:27:22;;;;;;;3.88;3.15;;;21.00;48.10;;;;;;5057025;28;20051;-62
2022/11/07 03:29:49;;;;;;;4.03;3.10;;;21.00;48.10;;;;;;5058325;28;20053;-62
2022/11/07 03:32:16;;;;;;;5.05;3.58;;;21.00;48.10;;;;;;5058107;28;20041;-59
2022/11/07 03:34:43;;;;;;;3.80;3.05;;;21.00;48.10;;;;;;5058181;28;20049;-62
2022/11/07 03:37:10;;;;;;;4.32;3.38;;;21.00;48.10;;;;;;5058338;28;20049;-62
2022/11/07 03:39:37;;;;;;;3.85;3.25;;;21.00;48.10;;;;;;5058246;28;20056;-62
2022/11/07 03:42:04;;;;;;;4.20;3.33;;;21.00;48.10;;;;;;5057759;28;20510;-62
2022/11/07 03:44:31;;;;;;;3.92;3.05;;;21.00;48.10;;;;;;5057853;28;20136;-62
2022/11/07 03:46:58;;;;;;;3.80;3.20;;;21.00;48.10;;;;;;5058142;28;20053;-62
2022/11/07 03:49:25;;;;;;;4.47;3.55;;;21.00;48.10;;;;;;5058012;28;20049;-62
2022/11/07 03:51:52;;;;;;;4.05;2.85;;;21.00;48.10;;;;;;5057473;28;20502;-62
2022/11/07 03:54:19;;;;;;;5.85;2.92;;;21.00;48.10;;;;;;5057960;28;20049;-58
2022/11/07 03:56:46;;;;;;;4.85;3.47;;;21.00;48.10;;;;;;5057728;28;20049;-62
2022/11/07 03:59:13;;;;;;;3.65;3.10;;;20.90;48.10;;;;;;5057438;28;20053;-62
2022/11/07 04:01:40;;;;;;;3.20;2.90;;;21.00;48.20;;;;;;5057285;28;20491;-62
2022/11/07 04:04:08;;;;;;;4.20;3.28;;;21.00;48.20;;;;;;5057367;28;20505;-62
2022/11/07 04:06:35;;;;;;;3.50;3.20;;;21.00;48.20;;;;;;5057320;28;20048;-62
2022/11/07 04:09:02;;;;;;;4.82;3.70;;;21.00;48.20;;;;;;5057432;28;20048;-62
2022/11/07 04:17:18;;;;;;;4.65;3.70;;;21.00;48.20;;;;;;5057199;28;20052;-62
2022/11/07 04:19:47;;;;;;;4.60;3.40;;;21.00;48.20;;;;;;5056985;28;20049;-62
2022/11/07 04:22:15;;;;;;;3.17;2.88;;;21.00;48.20;;;;;;5057028;28;20128;-62
2022/11/07 04:24:43;;;;;;;4.25;3.17;;;21.00;48.20;;;;;;5056964;28;20057;-62
2022/11/07 04:30:18;;;;;;;4.63;3.63;;;21.00;48.20;;;;;;5057141;28;20053;-62
2022/11/07 04:32:51;;;;;;;4.00;3.10;;;21.00;48.30;;;;;;5056981;28;20102;-62
2022/11/07 04:35:20;;;;;;;3.58;3.17;;;20.90;48.20;;;;;;5057141;28;20048;-62
2022/11/07 04:37:48;;;;;;;3.35;2.92;;;20.90;48.30;;;;;;5055713;28;20049;-62
2022/11/07 04:40:16;;;;;;;4.32;3.17;;;20.90;48.30;;;;;;5056892;28;20043;-62
2022/11/07 04:42:44;;;;;;;3.58;3.22;;;20.90;48.40;;;;;;5056750;28;20045;-62
2022/11/07 04:45:12;;;;;;;4.95;3.45;;;20.90;48.40;;;;;;5056876;28;20051;-62
2022/11/07 04:47:39;;;;;;;5.50;3.97;;;20.90;48.40;;;;;;5056682;28;20049;-62
2022/11/07 04:50:09;;;;;;;3.78;3.05;;;20.90;48.40;;;;;;5056671;28;20053;-62
2022/11/07 04:52:37;;;;;;;3.85;2.65;;;20.90;48.40;;;;;;5056495;28;20052;-62
2022/11/07 04:55:05;;;;;;;3.65;3.05;;;20.90;48.90;;;;;;5055698;28;20052;-62
2022/11/07 04:57:32;;;;;;;3.92;2.80;;;20.90;48.30;;;;;;5056590;28;20045;-62
2022/11/07 04:59:59;;;;;;;3.30;3.00;;;20.90;48.80;;;;;;5056473;28;20487;-62
2022/11/07 05:02:26;;;;;;;3.88;2.63;;;20.90;48.30;;;;;;5055987;28;20049;-62
2022/11/07 05:04:54;;;;;;;3.10;2.70;;;21.00;48.30;;;;;;5056769;28;20096;-62
2022/11/07 05:07:21;;;;;;;3.47;2.75;;;21.00;48.30;;;;;;5056429;28;20515;-63
2022/11/07 05:09:48;;;;;;;4.07;2.75;;;21.00;48.30;;;;;;5056839;28;20491;-63
2022/11/07 05:12:15;;;;;;;3.30;3.00;;;21.00;48.40;;;;;;5056630;28;20053;-62
2022/11/07 05:14:42;;;;;;;3.65;3.25;;;21.00;48.30;;;;;;5056373;28;20057;-62
2022/11/07 05:17:14;;;;;;;4.13;3.22;;;21.00;48.30;;;;;;5056568;28;20514;-61
2022/11/07 05:19:44;;;;;;;3.45;3.13;;;20.90;48.30;;;;;;5056408;28;20045;-62
2022/11/07 05:24:58;;;;;;;3.75;2.92;;;21.00;48.30;;;;;;5056330;28;20393;-62
2022/11/07 05:27:25;;;;;;;4.20;3.35;;;21.00;48.40;;;;;;5056725;28;20049;-62
2022/11/07 05:29:52;;;;;;;3.10;2.80;;;21.00;48.30;;;;;;5055534;28;20422;-62
2022/11/07 05:32:19;;;;;;;3.28;2.90;;;21.00;48.40;;;;;;5056826;28;20384;-62
2022/11/07 05:34:47;;;;;;;4.22;3.17;;;20.90;48.30;;;;;;5056551;28;20500;-62
2022/11/07 05:37:14;;;;;;;4.03;3.22;;;21.00;48.30;;;;;;5056208;28;20041;-62
2022/11/07 05:39:41;;;;;;;4.40;3.25;;;20.90;48.20;;;;;;5056577;28;20053;-62
2022/11/07 05:42:08;;;;;;;3.80;3.35;;;21.00;48.10;;;;;;5056289;28;20384;-62
2022/11/07 05:44:35;;;;;;;4.32;3.35;;;21.00;48.00;;;;;;5056493;28;20045;-62
2022/11/07 05:47:03;;;;;;;4.70;3.15;;;21.00;48.00;;;;;;5055017;28;20505;-62
2022/11/07 05:49:30;;;;;;;4.05;3.65;;;21.00;47.90;;;;;;5056279;28;20399;-62
2022/11/07 05:51:57;;;;;;;3.63;3.33;;;21.00;47.90;;;;;;5056290;28;20049;-62
2022/11/07 05:54:26;;;;;;;6.32;3.90;;;21.00;47.90;;;;;;5056171;28;20402;-62
2022/11/07 05:56:57;;;;;;;3.55;2.90;;;21.00;47.90;;;;;;5056394;28;20045;-62
2022/11/07 05:59:24;;;;;;;;;;;21.00;47.90;;;;;;5056232;28;20081;-62
2022/11/07 06:01:52;;;;;;;5.32;3.55;;;21.00;47.90;;;;;;5056242;28;19928;-62
2022/11/07 06:04:19;;;;;;;5.82;3.63;;;20.90;47.90;;;;;;5055731;28;20521;-62
2022/11/07 06:06:47;;;;;;;3.85;3.40;;;20.90;47.90;;;;;;5055908;28;20049;-62
2022/11/07 06:09:14;;;;;;;6.22;3.20;;;20.90;47.90;;;;;;5055792;28;20406;-62
2022/11/07 06:11:41;;;;;;;4.60;3.67;;;20.90;47.90;;;;;;5056222;28;20049;-63
2022/11/07 06:14:08;;;;;;;7.90;3.97;;;20.90;47.90;;;;;;5054552;28;20049;-62
2022/11/07 06:16:35;;;;;;;5.78;3.58;;;20.90;47.90;;;;;;5058878;28;20045;-62
2022/11/07 06:19:03;;;;;;;5.97;3.47;;;20.90;48.00;;;;;;5058779;28;20060;-61
2022/11/07 06:21:30;;;;;;;4.47;3.90;;;20.90;48.20;;;;;;5058873;28;20410;-58
2022/11/07 06:23:58;;;;;;;4.40;3.55;;;20.90;48.20;;;;;;5058251;28;20510;-62
2022/11/07 06:26:25;;;;;;;4.43;3.38;;;20.90;48.20;;;;;;5057577;28;20080;-64
2022/11/07 06:28:52;;;;;;;5.53;3.80;;;20.90;48.20;;;;;;5063518;28;20443;-62
2022/11/07 06:31:20;;;;;;;5.60;4.20;;;20.90;48.90;;;;;;5072893;28;20039;-61
2022/11/07 06:33:50;;;;;;;5.53;4.43;;;20.90;48.50;;;;;;5077950;28;20055;-60
2022/11/07 06:48:29;;;;;;;5.80;4.05;;;21.00;48.90;;;;;;5078155;28;20493;-61
2022/11/07 06:50:58;;;;;;;8.77;4.40;;;21.00;48.90;;;;;;5078736;28;20056;-61
2022/11/07 06:57:16;;;;;;;7.75;4.80;;;21.10;49.30;;;;;;5067166;28;20078;-64
2022/11/07 06:59:43;;;;;;;8.52;4.47;;;21.10;49.00;;;;;;5071471;28;20044;-62
2022/11/07 07:02:30;;;;;;;5.40;4.00;;;21.10;48.70;;;;;;5076127;28;20048;-61
2022/11/07 07:16:40;;;;;;;8.75;4.85;;;21.20;49.20;;;;;;5077309;28;20086;-60
2022/11/07 07:19:07;;;;;;;10.27;4.57;;;21.30;49.30;;;;;;5073290;28;20399;-61
2022/11/07 07:25:11;;;;;;;7.45;5.00;;;21.40;49.60;;;;;;5076012;28;20049;-60
2022/11/07 07:27:38;;;;;;;7.25;4.57;;;21.40;49.60;;;;;;5076730;28;20513;-60
2022/11/07 07:30:06;;;;;;;9.52;5.07;;;21.50;49.60;;;;;;5218210;22;20095;-65
2022/11/07 07:32:35;;;;;;;7.85;4.63;;;21.50;49.60;;;;;;5056352;28;20084;-60
2022/11/07 07:35:03;;;;;;;8.38;4.82;;;21.50;49.60;;;;;;5057095;28;20056;-62
2022/11/07 07:37:30;;;;;;;12.15;5.25;;;21.60;49.90;;;;;;5056527;28;20089;-60
2022/11/07 07:39:57;;;;;;;8.95;5.05;;;21.60;50.00;;;;;;5057049;28;20477;-61
2022/11/07 07:42:24;;;;;;;11.90;4.82;;;21.60;50.00;;;;;;5056641;28;20406;-60
2022/11/07 07:44:51;;;;;;;9.00;4.95;;;21.70;50.00;;;;;;5056726;28;20056;-60
2022/11/07 07:47:18;;;;;;;8.82;5.30;;;21.70;49.90;;;;;;5056531;28;20061;-60
2022/11/07 07:49:46;;;;;;;12.57;5.35;;;21.70;49.70;;;;;;5057331;28;20048;-61
2022/11/07 07:52:13;;;;;;;8.63;5.72;;;21.70;49.60;;;;;;5057231;28;20051;-61
2022/11/07 07:55:29;;;;;;;9.85;5.63;;;21.80;49.50;;;;;;5051624;28;20045;-61
2022/11/07 07:57:56;;;;;;;10.55;5.47;;;21.80;49.40;;;;;;5039842;28;20132;-59
2022/11/07 08:00:23;;;;;;;8.90;4.90;;;21.90;49.30;;;;;;5036464;28;20045;-58
2022/11/07 08:02:58;;;;;;;10.00;5.28;;;21.80;49.20;;;;;;5036166;28;20064;-59
2022/11/07 08:05:25;;;;;;;12.60;5.72;;;21.90;49.10;;;;;;5036399;28;20057;-59
2022/11/07 08:07:52;;;;;;;10.45;5.72;;;21.90;48.90;;;;;;5036503;28;20052;-59
2022/11/07 08:10:20;;;;;;;11.32;5.88;;;21.90;48.80;;;;;;5037141;28;20064;-59
2022/11/07 08:13:07;;;;;;;11.77;5.15;;;21.90;48.70;;;;;;5035712;28;20400;-59
2022/11/07 08:15:34;;;;;;;11.65;5.65;;;21.90;48.60;;;;;;5034731;28;20045;-59
2022/11/07 08:18:05;;;;;;;10.48;6.03;;;21.90;48.40;;;;;;5036107;28;20049;-59
2022/11/07 08:20:32;;;;;;;11.18;5.30;;;21.90;48.40;;;;;;5038068;28;20072;-59
2022/11/07 08:23:04;;;;;;;9.43;5.15;;;22.00;48.30;;;;;;5037955;28;20045;-60
2022/11/07 08:25:34;;;;;;;13.48;5.40;;;22.10;48.30;;;;;;5035271;28;20050;-60
2022/11/07 08:28:02;;;;;;;14.60;5.78;;;22.00;48.00;;;;;;5035846;28;20204;-58
2022/11/07 08:30:30;;;;;;;9.80;5.53;;;22.00;48.00;;;;;;5035529;28;20506;-59
2022/11/07 08:33:02;;;;;;;11.77;5.05;;;22.00;48.00;;;;;;5035810;28;20056;-58
2022/11/07 08:35:30;;;;;;;8.35;5.05;;;22.10;47.90;;;;;;5035744;28;20471;-59
2022/11/07 08:37:57;;;;;;;8.02;4.93;;;22.10;48.00;;;;;;5034753;28;20053;-58
2022/11/07 08:40:25;;;;;;;10.50;4.68;;;22.10;47.90;;;;;;5035579;28;20056;-62
2022/11/07 08:42:57;;;;;;;11.05;5.40;;;22.20;47.90;;;;;;5035654;28;20053;-59
2022/11/07 08:45:24;;;;;;;5.88;4.35;;;22.10;47.90;;;;;;5036443;28;20411;-59
2022/11/07 08:47:56;;;;;;;7.63;5.20;;;22.10;47.80;;;;;;5035646;28;20057;-58
2022/11/07 08:50:24;;;;;;;10.73;4.63;;;22.10;48.00;;;;;;5042282;28;20057;-59
2022/11/07 08:52:52;;;;;;;10.55;5.20;;;22.20;48.30;;;;;;5037951;28;20076;-58
2022/11/07 08:55:27;;;;;;;21.83;5.30;;;22.20;48.30;;;;;;5035240;28;20553;-60
2022/11/07 09:14:11;;;;;;;9.02;5.45;;;22.40;48.00;;;;;;5375381;23;20053;-59
2022/11/07 09:16:38;;;;;;;13.43;5.22;;;22.40;48.10;;;;;;5017672;28;20052;-62
2022/11/07 09:19:05;;;;;;;9.07;4.93;;;22.40;48.10;;;;;;5017715;28;20052;-61
2022/11/07 09:21:32;;;;;;;8.88;5.20;;;22.50;48.10;;;;;;5036586;28;20057;-64
2022/11/07 09:24:00;;;;;;;8.90;5.53;;;22.50;48.10;;;;;;5034801;28;20045;-61
2022/11/07 09:26:27;;;;;;;10.00;5.60;;;22.50;48.10;;;;;;5035103;28;20049;-62
2022/11/07 09:28:54;;;;;;;10.95;5.80;;;22.50;48.00;;;;;;5034629;28;20053;-62
2022/11/07 09:32:43;;;;;;;11.55;5.45;;;22.50;48.00;;;;;;5031139;28;20087;-62
2022/11/07 09:35:48;;;;;;;10.30;5.13;;;22.60;48.10;;;;;;5031723;28;20103;-60
2022/11/07 09:38:37;;;;;;;14.45;5.43;;;22.60;48.00;;;;;;5030301;28;20398;-62
2022/11/07 09:44:56;;;;;;;7.30;4.85;;;22.60;48.00;;;;;;5035231;28;20036;-61
2022/11/07 09:47:38;;;;;;;9.93;6.07;;;22.70;47.90;;;;;;5017898;28;20402;-60
2022/11/07 09:50:34;;;;;;;12.50;6.25;;;22.70;47.70;;;;;;5038605;28;20045;-61
2022/11/07 09:53:09;;;;;;;10.38;6.00;;;22.80;47.80;;;;;;5039413;28;20406;-61
2022/11/07 09:55:40;;;;;;;12.23;5.95;;;22.80;47.70;;;;;;5022413;28;20499;-61
2022/11/07 09:58:27;;;;;;;22.00;7.20;;;22.90;47.50;;;;;;5039214;28;20414;-60
2022/11/07 10:00:59;;;;;;;8.63;5.93;;;22.90;47.40;;;;;;5038681;28;20045;-60
2022/11/07 10:03:27;;;;;;;8.93;5.78;;;22.90;47.30;;;;;;5038116;28;20487;-64
2022/11/07 10:06:19;;;;;;;12.38;5.65;;;23.00;47.30;;;;;;5021566;28;20049;-60
2022/11/07 10:09:15;;;;;;;8.38;5.85;;;23.00;47.20;;;;;;5113637;23;20053;-60
2022/11/07 10:12:12;;;;;;;11.15;5.95;;;23.00;46.80;;;;;;5022995;28;20067;-60
2022/11/07 10:14:58;;;;;;;9.50;5.72;;;23.00;46.40;;;;;;5038871;28;20092;-60
2022/11/07 10:18:03;;;;;;;9.55;5.68;;;23.10;46.50;;;;;;5038963;28;20042;-62
2022/11/07 10:21:02;;;;;;;9.48;5.82;;;23.10;46.40;;;;;;5037369;28;20057;-61
2022/11/07 10:24:21;;;;;;;11.68;6.72;;;23.10;46.30;;;;;;5020163;28;20053;-62
2022/11/07 10:26:48;;;;;;;12.32;6.50;;;23.20;46.20;;;;;;5017819;28;20064;-60
2022/11/07 10:29:18;;;;;;;10.60;6.13;;;23.20;46.20;;;;;;5022646;28;20057;-59
2022/11/07 10:31:56;;;;;;;8.80;6.15;;;23.20;45.90;;;;;;5020659;28;20095;-60
2022/11/07 10:34:46;;;;;;;10.02;5.85;;;23.30;45.80;;;;;;5022692;28;20050;-61
2022/11/07 10:37:20;;;;;;;7.35;5.68;;;23.30;45.80;;;;;;5022322;28;20060;-60
2022/11/07 10:39:47;;;;;;;11.18;6.00;;;23.30;45.90;;;;;;5018627;28;20042;-60
2022/11/07 10:42:20;;;;;;;9.00;5.90;;;23.30;45.90;;;;;;5023044;28;20057;-59
2022/11/07 10:44:48;;;;;;;9.07;5.80;;;23.30;45.70;;;;;;5006041;28;20053;-59
2022/11/07 10:47:20;;;;;;;7.43;5.43;;;23.30;45.60;;;;;;5003278;28;20042;-61
2022/11/07 10:49:59;;;;;;;12.45;6.30;;;23.40;45.50;;;;;;5014564;28;20053;-59
2022/11/07 10:52:27;;;;;;;12.75;6.13;;;23.40;45.40;;;;;;5018413;28;20049;-60
2022/11/07 10:55:13;;;;;;;10.23;6.55;;;23.40;45.40;;;;;;5023392;28;20053;-59
2022/11/07 10:57:41;;;;;;;10.27;5.47;;;23.30;45.40;;;;;;5016835;28;20052;-60
2022/11/07 11:00:24;;;;;;;12.88;5.30;;;23.40;45.40;;;;;;5018601;28;20076;-60
2022/11/07 11:02:55;;;;;;;10.45;5.53;;;23.40;45.30;;;;;;5020613;28;20115;-60
2022/11/07 11:05:42;;;;;;;10.60;5.55;;;23.40;45.20;;;;;;4994485;28;20054;-62
2022/11/07 11:08:19;;;;;;;7.55;5.30;;;23.40;45.30;;;;;;5023295;28;20057;-61
2022/11/07 11:10:47;;;;;;;7.65;5.55;;;23.40;45.30;;;;;;5022892;28;20132;-60
2022/11/07 11:13:31;;;;;;;9.18;5.50;;;23.40;45.30;;;;;;5021811;28;20409;-61
2022/11/07 11:16:26;;;;;;;12.75;5.78;;;23.40;45.30;;;;;;5018721;28;20045;-61
2022/11/07 11:18:57;;;;;;;8.65;5.43;;;23.40;45.20;;;;;;5004120;28;20049;-60
2022/11/07 11:21:24;;;;;;;9.93;5.88;;;23.40;45.10;;;;;;5014986;28;20049;-61
2022/11/07 11:23:53;;;;;;;8.18;5.55;;;23.40;45.10;;;;;;5017986;28;20053;-61
2022/11/07 11:26:38;;;;;;;13.70;5.50;;;23.30;45.10;;;;;;5019128;28;20045;-60
2022/11/07 11:29:16;;;;;;;7.78;4.90;;;23.40;45.00;;;;;;5013548;28;20498;-60
2022/11/07 11:31:50;;;;;;;8.15;5.28;;;23.40;45.20;;;;;;5018003;28;20037;-60
2022/11/07 11:34:54;;;;;;;9.93;6.10;;;23.40;45.20;;;;;;5020375;28;20799;-60
2022/11/07 11:37:26;;;;;;;7.97;4.65;;;23.40;45.20;;;;;;5020578;28;20053;-61
2022/11/07 11:40:12;;;;;;;9.15;5.43;;;23.40;45.20;;;;;;5020368;28;20079;-60
2022/11/07 11:43:06;;;;;;;7.47;5.03;;;23.40;45.30;;;;;;5020057;28;20064;-60
2022/11/07 11:45:59;;;;;;;7.82;5.40;;;23.40;45.30;;;;;;5002073;28;20060;-61
2022/11/07 11:48:46;;;;;;;9.35;5.75;;;23.40;45.30;;;;;;5021204;28;20052;-63
2022/11/07 11:51:40;;;;;;;8.52;5.68;;;23.40;45.50;;;;;;5020693;28;20049;-60
2022/11/07 11:54:14;;;;;;;7.55;5.28;;;23.40;45.60;;;;;;5018167;28;20045;-60
2022/11/07 11:56:54;;;;;;;7.35;5.00;;;23.50;45.60;;;;;;5017410;28;20053;-60
2022/11/07 11:59:59;;;;;;;9.02;5.13;;;23.50;45.50;;;;;;5020218;28;20045;-61
2022/11/07 12:02:55;;;;;;;10.00;5.40;;;23.50;45.40;;;;;;5004613;28;20041;-59
2022/11/07 12:06:02;;;;;;;8.02;5.82;;;23.60;45.40;;;;;;5018252;28;20056;-61
2022/11/07 12:08:53;;;;;;;13.82;5.45;;;23.50;45.30;;;;;;4988456;28;20077;-60
2022/11/07 12:11:48;;;;;;;10.10;5.50;;;23.50;45.40;;;;;;5019288;28;20052;-59
2022/11/07 12:14:37;;;;;;;9.65;5.88;;;23.50;45.40;;;;;;5019763;28;20056;-60
2022/11/07 12:17:25;;;;;;;7.07;5.22;;;23.50;45.40;;;;;;5011512;28;20787;-59
2022/11/07 12:20:23;;;;;;;11.80;5.78;;;23.50;45.30;;;;;;5017823;28;20045;-59
2022/11/07 12:23:10;;;;;;;6.53;4.78;;;23.50;45.30;;;;;;5006552;28;20041;-59
2022/11/07 12:26:10;;;;;;;8.40;5.28;;;23.50;45.20;;;;;;5013452;28;20471;-60
2022/11/07 12:29:08;;;;;;;7.60;5.40;;;23.50;45.10;;;;;;5018735;28;20414;-60
2022/11/07 12:32:07;;;;;;;11.00;5.60;;;23.50;45.10;;;;;;5005564;28;20049;-59
2022/11/07 12:34:52;;;;;;;15.68;6.07;;;23.50;45.10;;;;;;5018940;28;20491;-60
2022/11/07 12:37:56;;;;;;;8.73;5.78;;;23.60;45.30;;;;;;5018515;28;20076;-60
2022/11/07 12:41:03;;;;;;;9.02;5.85;;;23.60;45.30;;;;;;5021110;28;20096;-61
2022/11/07 12:44:09;;;;;;;11.52;5.20;;;23.60;45.40;;;;;;5004046;28;20046;-61
2022/11/07 12:46:45;;;;;;;11.38;5.07;;;23.60;45.40;;;;;;5002736;28;20046;-61
2022/11/07 12:49:52;;;;;;;7.28;4.68;;;23.60;45.40;;;;;;5019259;28;20065;-61
2022/11/07 12:52:41;;;;;;;8.10;5.93;;;23.60;45.30;;;;;;5018150;28;20155;-61
2022/11/07 12:55:38;;;;;;;7.65;5.30;;;23.60;45.40;;;;;;5018081;28;20057;-61
2022/11/07 12:58:15;;;;;;;14.07;5.57;;;23.60;45.50;;;;;;5013522;28;20764;-63
2022/11/07 13:00:43;;;;;;;11.93;5.90;;;23.60;45.50;;;;;;5016587;28;20066;-61
2022/11/07 13:03:37;;;;;;;9.85;5.45;;;23.60;45.60;;;;;;5012979;28;20050;-60
2022/11/07 13:06:36;;;;;;;9.57;5.30;;;23.60;45.30;;;;;;5018465;28;20140;-61
2022/11/07 13:09:29;;;;;;;9.35;5.57;;;23.60;45.30;;;;;;5022828;28;20049;-62
2022/11/07 13:12:30;;;;;;;9.68;6.13;;;23.60;45.40;;;;;;5003669;28;20049;-60
2022/11/07 13:14:57;;;;;;;8.38;5.25;;;23.60;45.30;;;;;;5020462;28;20045;-60
2022/11/07 13:17:36;;;;;;;9.00;5.65;;;23.60;45.40;;;;;;5019252;28;20041;-61
2022/11/07 13:20:25;;;;;;;8.05;5.22;;;23.60;45.20;;;;;;5019785;28;20057;-61
2022/11/07 13:22:54;;;;;;;7.95;5.60;;;23.60;45.20;;;;;;5013589;28;20468;-60
2022/11/07 13:25:29;;;;;;;9.17;5.57;;;23.60;45.40;;;;;;4999391;28;20503;-61
2022/11/07 13:28:03;;;;;;;7.93;5.68;;;23.60;45.20;;;;;;5023296;28;20048;-61
2022/11/07 13:30:38;;;;;;;8.23;5.20;;;23.60;45.30;;;;;;5019651;28;20057;-59
2022/11/07 13:33:22;;;;;;;7.93;5.28;;;23.60;45.20;;;;;;5025892;28;20049;-62
2022/11/07 13:35:58;;;;;;;7.93;5.18;;;23.60;45.30;;;;;;5020883;28;20395;-60
2022/11/07 13:38:26;;;;;;;7.78;5.43;;;23.60;45.30;;;;;;5021273;28;20083;-60
2022/11/07 13:41:02;;;;;;;11.55;6.32;;;23.60;45.90;;;;;;5020067;28;20057;-61
2022/11/07 13:43:53;;;;;;;10.10;5.68;;;23.60;45.40;;;;;;5021151;28;20131;-62
2022/11/07 13:46:36;;;;;;;9.10;5.55;;;23.60;45.40;;;;;;5018162;28;20041;-60
2022/11/07 13:49:13;;;;;;;9.25;5.68;;;23.60;45.30;;;;;;5017011;28;20141;-62
2022/11/07 13:51:44;;;;;;;8.45;5.50;;;23.60;45.40;;;;;;5019474;28;20053;-61
2022/11/07 13:54:26;;;;;;;8.68;6.30;;;23.60;45.50;;;;;;5020021;28;20053;-61
2022/11/07 13:57:05;;;;;;;9.98;6.70;;;23.60;45.30;;;;;;5019091;28;20080;-61
2022/11/07 13:59:54;;;;;;;7.72;5.28;;;23.60;45.30;;;;;;5020735;28;20050;-62
2022/11/07 14:02:24;;;;;;;8.68;5.45;;;23.60;45.30;;;;;;5016430;28;20049;-61
2022/11/07 14:05:02;;;;;;;11.52;5.53;;;23.60;45.60;;;;;;5017261;28;20052;-61
2022/11/07 14:07:47;;;;;;;9.35;6.13;;;23.60;45.70;;;;;;5000447;28;20494;-64
2022/11/07 14:10:24;;;;;;;11.32;6.45;;;23.60;45.70;;;;;;5020777;28;20143;-61
2022/11/07 14:13:01;;;;;;;9.30;6.10;;;23.60;45.60;;;;;;5017172;28;20053;-62
2022/11/07 14:15:29;;;;;;;9.00;5.75;;;23.60;45.70;;;;;;5017700;28;21306;-63
2022/11/07 14:17:56;;;;;;;11.27;6.63;;;23.60;45.80;;;;;;5019738;28;20050;-61
2022/11/07 14:20:24;;;;;;;8.05;5.80;;;23.60;45.70;;;;;;5018282;28;20542;-59
2022/11/07 14:22:55;;;;;;;10.50;6.18;;;23.60;45.70;;;;;;5022449;28;20048;-60
2022/11/07 14:25:27;;;;;;;;;;;23.60;45.50;;;;;;5018792;28;20729;-61
2022/11/07 14:27:55;;;;;;;8.20;6.25;;;23.60;45.40;;;;;;5018756;28;20396;-64